Time;durP1;ratioP1;P1;durP2;ratioP2;P2;SDS_P1;SDS_P2;PMS_P1;PMS_P2;Temp;Humidity;BMP_temperature;BMP_pressure;BME280_temperature;BME280_humidity;BME280_pressure;Samples;Min_cycle;Max_cycle;Signal;HPM_P1;HPM_P2
2021/10/03 00:01:00;;;;;;;0.95;0.82;;;;;;;-142.37;100.00;59669.53;4976819;28;20027;-69
2021/10/03 00:03:26;;;;;;;1.45;0.70;;;;;;;-142.37;100.00;59669.53;4976292;28;20023;-69
2021/10/03 00:05:53;;;;;;;1.55;0.90;;;;;;;-142.37;100.00;59669.53;4976438;28;20027;-70
2021/10/03 00:08:19;;;;;;;0.93;0.60;;;;;;;-142.37;100.00;59669.53;4976506;28;20026;-69
2021/10/03 00:10:45;;;;;;;0.85;0.73;;;;;;;-142.37;100.00;59669.53;4976431;28;20489;-69
2021/10/03 00:13:11;;;;;;;1.67;0.98;;;;;;;-142.37;100.00;59669.53;4976514;28;20031;-68
2021/10/03 00:15:37;;;;;;;1.10;0.57;;;;;;;-142.37;100.00;59669.53;4976489;28;20055;-69
2021/10/03 00:18:04;;;;;;;1.50;0.90;;;;;;;-142.37;100.00;59669.53;4975222;28;20069;-70
2021/10/03 00:20:30;;;;;;;2.08;0.77;;;;;;;-142.37;100.00;59669.53;4974738;28;20381;-69
2021/10/03 00:22:58;;;;;;;1.30;0.60;;;;;;;-142.37;100.00;59669.53;4976405;28;20031;-70
2021/10/03 00:25:25;;;;;;;1.52;0.70;;;;;;;-142.37;100.00;59669.53;4976282;28;20050;-70
2021/10/03 00:27:53;;;;;;;1.48;0.57;;;;;;;-142.37;100.00;59669.53;4976062;28;20029;-69
2021/10/03 00:30:20;;;;;;;2.28;0.75;;;;;;;-142.37;100.00;59669.53;4976131;28;20023;-69
2021/10/03 00:32:46;;;;;;;0.88;0.70;;;;;;;-142.37;100.00;59669.53;4974992;28;20158;-69
2021/10/03 00:35:12;;;;;;;0.88;0.60;;;;;;;-142.37;100.00;59669.53;4974716;28;20061;-69
2021/10/03 00:37:38;;;;;;;0.85;0.50;;;;;;;-142.37;100.00;59669.53;4976046;28;20034;-69
2021/10/03 00:40:04;;;;;;;1.73;0.88;;;;;;;-142.37;100.00;59669.53;4974627;28;20027;-70
2021/10/03 00:42:30;;;;;;;3.13;0.98;;;;;;;-142.37;100.00;59669.53;4974633;28;20027;-70
2021/10/03 00:44:55;;;;;;;1.05;0.60;;;;;;;-142.37;100.00;59669.53;4986661;28;20026;-69
2021/10/03 00:47:20;;;;;;;1.20;0.80;;;;;;;-142.37;100.00;59669.53;4995321;28;20022;-69
2021/10/03 00:49:46;;;;;;;1.33;0.60;;;;;;;-142.37;100.00;59669.53;4995073;28;20039;-69
2021/10/03 00:52:11;;;;;;;0.85;0.68;;;;;;;-142.37;100.00;59669.53;4995279;28;20500;-69
2021/10/03 00:54:37;;;;;;;1.50;0.50;;;;;;;-142.37;100.00;59669.53;4995295;28;20030;-69
2021/10/03 00:57:03;;;;;;;1.63;0.77;;;;;;;-142.37;100.00;59669.53;4995110;28;20080;-69
2021/10/03 00:59:31;;;;;;;0.77;0.50;;;;;;;-142.37;100.00;59669.53;4994799;28;20022;-69
2021/10/03 01:01:57;;;;;;;0.90;0.55;;;;;;;-142.37;100.00;59669.53;4994877;28;20025;-69
2021/10/03 01:04:22;;;;;;;2.05;0.80;;;;;;;-142.37;100.00;59669.53;4994760;28;20015;-69
2021/10/03 01:06:48;;;;;;;0.77;0.60;;;;;;;-142.37;100.00;59669.53;4994845;28;20355;-69
2021/10/03 01:09:14;;;;;;;1.48;0.65;;;;;;;-142.37;100.00;59669.53;4994766;28;20105;-69
2021/10/03 01:11:39;;;;;;;0.95;0.55;;;;;;;-142.37;100.00;59669.53;4994867;28;20485;-70
2021/10/03 01:14:04;;;;;;;1.92;0.60;;;;;;;-142.37;100.00;59669.53;4994203;28;20098;-69
2021/10/03 01:16:30;;;;;;;1.58;0.57;;;;;;;-142.37;100.00;59669.53;4994897;28;20105;-69
2021/10/03 01:18:58;;;;;;;0.95;0.60;;;;;;;-142.37;100.00;59669.53;4994494;28;20023;-69
2021/10/03 01:21:25;;;;;;;0.88;0.75;;;;;;;-142.37;100.00;59669.53;4977030;28;20094;-69
2021/10/03 01:23:55;;;;;;;1.50;0.70;;;;;;;-142.37;100.00;59669.53;4994550;28;20033;-69
2021/10/03 01:26:21;;;;;;;0.95;0.70;;;;;;;-142.37;100.00;59669.53;4994523;28;20097;-69
2021/10/03 01:28:48;;;;;;;1.52;0.52;;;;;;;-142.37;100.00;59669.53;4994596;28;20494;-69
2021/10/03 01:31:14;;;;;;;1.42;0.47;;;;;;;-142.37;100.00;59669.53;4976754;28;20105;-69
2021/10/03 01:33:40;;;;;;;0.40;0.40;;;;;;;-142.37;100.00;59669.53;4994545;28;20057;-71
2021/10/03 01:36:06;;;;;;;0.55;0.50;;;;;;;-142.37;100.00;59669.53;4994127;28;20034;-69
2021/10/03 01:38:34;;;;;;;2.05;0.60;;;;;;;-142.37;100.00;59669.53;4994375;28;20073;-69
2021/10/03 01:41:06;;;;;;;1.75;0.60;;;;;;;-142.37;100.00;59669.53;4994213;28;20046;-70
2021/10/03 01:43:32;;;;;;;1.02;0.70;;;;;;;-142.37;100.00;59669.53;4994120;28;20034;-69
2021/10/03 01:45:59;;;;;;;1.33;0.60;;;;;;;-142.37;100.00;59669.53;4994316;28;20125;-69
2021/10/03 01:48:25;;;;;;;0.95;0.50;;;;;;;-142.37;100.00;59669.53;4994275;28;20036;-68
2021/10/03 01:50:57;;;;;;;2.00;0.68;;;;;;;-142.37;100.00;59669.53;4993929;28;20097;-69
2021/10/03 01:53:31;;;;;;;1.23;0.45;;;;;;;-142.37;100.00;59669.53;4977155;28;20037;-69
2021/10/03 01:55:58;;;;;;;;;;;;;;;-142.37;100.00;59669.53;4994280;28;20033;-68
2021/10/03 01:58:26;;;;;;;1.10;0.60;;;;;;;-142.37;100.00;59669.53;4994062;28;20533;-70
2021/10/03 02:00:57;;;;;;;1.25;0.70;;;;;;;-142.37;100.00;59669.53;4993894;28;20060;-70
2021/10/03 02:03:23;;;;;;;0.60;0.38;;;;;;;-142.37;100.00;59669.53;4976577;28;20022;-69
2021/10/03 02:05:50;;;;;;;2.13;0.63;;;;;;;-142.37;100.00;59669.53;4993983;28;20023;-69
2021/10/03 02:08:17;;;;;;;1.67;0.63;;;;;;;-142.37;100.00;59669.53;4993868;28;20023;-69
2021/10/03 02:10:46;;;;;;;1.30;0.70;;;;;;;-142.37;100.00;59669.53;4994024;28;20027;-69
2021/10/03 02:13:12;;;;;;;2.20;0.85;;;;;;;-142.37;100.00;59669.53;4993200;28;20412;-69
2021/10/03 02:15:40;;;;;;;2.78;0.75;;;;;;;-142.37;100.00;59669.53;4993528;28;20145;-70
2021/10/03 02:18:08;;;;;;;0.85;0.50;;;;;;;-142.37;100.00;59669.53;4993831;28;20355;-69
2021/10/03 02:20:34;;;;;;;0.85;0.60;;;;;;;-142.37;100.00;59669.53;4993911;28;20030;-69
2021/10/03 02:23:00;;;;;;;1.00;0.70;;;;;;;-142.37;100.00;59669.53;4978387;28;20736;-69
2021/10/03 02:25:25;;;;;;;0.63;0.60;;;;;;;-142.37;100.00;59669.53;4974104;28;20031;-69
2021/10/03 02:27:50;;;;;;;1.25;0.50;;;;;;;-142.37;100.00;59669.53;4974527;28;20034;-69
2021/10/03 02:30:16;;;;;;;1.60;0.70;;;;;;;-142.37;100.00;59669.53;4974257;28;20055;-69
2021/10/03 02:32:42;;;;;;;1.20;0.80;;;;;;;-142.37;100.00;59669.53;4974296;28;20027;-69
2021/10/03 02:35:11;;;;;;;1.08;0.50;;;;;;;-142.37;100.00;59669.53;4974061;28;20034;-69
2021/10/03 02:37:38;;;;;;;1.33;0.68;;;;;;;-142.37;100.00;59669.53;4956790;28;20050;-69
2021/10/03 02:40:06;;;;;;;0.90;0.82;;;;;;;-142.37;100.00;59669.53;4973901;28;20081;-69
2021/10/03 02:42:32;;;;;;;0.95;0.60;;;;;;;-142.37;100.00;59669.53;4974046;28;20493;-69
2021/10/03 02:44:58;;;;;;;1.30;0.73;;;;;;;-142.37;100.00;59669.53;4984935;28;20030;-69
2021/10/03 02:47:24;;;;;;;1.25;0.60;;;;;;;-142.37;100.00;59669.53;4993832;28;20353;-69
2021/10/03 02:49:49;;;;;;;2.03;0.70;;;;;;;-142.37;100.00;59669.53;4993610;28;20030;-69
2021/10/03 02:52:16;;;;;;;0.77;0.60;;;;;;;-142.37;100.00;59669.53;4976246;28;20085;-69
2021/10/03 02:54:42;;;;;;;0.73;0.60;;;;;;;-142.37;100.00;59669.53;4993694;28;20033;-69
2021/10/03 02:57:08;;;;;;;1.77;1.05;;;;;;;-142.37;100.00;59669.53;4993418;28;20030;-69
2021/10/03 02:59:34;;;;;;;3.05;0.88;;;;;;;-142.37;100.00;59669.53;4993568;28;20022;-69
2021/10/03 03:01:59;;;;;;;1.80;0.63;;;;;;;-142.37;100.00;59669.53;4993286;28;20045;-69
2021/10/03 03:04:25;;;;;;;1.55;0.80;;;;;;;-142.37;100.00;59669.53;4993452;28;20096;-69
2021/10/03 03:06:51;;;;;;;1.58;0.88;;;;;;;-142.37;100.00;59669.53;4993441;28;20023;-70
2021/10/03 03:09:16;;;;;;;1.58;0.90;;;;;;;-142.37;100.00;59669.53;4975916;28;20061;-69
2021/10/03 03:11:44;;;;;;;2.03;0.50;;;;;;;-142.37;100.00;59669.53;4993584;28;20042;-71
2021/10/03 03:14:10;;;;;;;0.90;0.80;;;;;;;-142.37;100.00;59669.53;4991656;28;20024;-73
2021/10/03 03:16:47;;;;;;;0.88;0.70;;;;;;;-142.37;100.00;59669.53;4976725;28;20400;-72
2021/10/03 03:19:14;;;;;;;0.82;0.60;;;;;;;-142.37;100.00;59669.53;4994206;28;20054;-73
2021/10/03 03:21:41;;;;;;;1.52;0.75;;;;;;;-142.37;100.00;59669.53;4994079;28;20069;-71
2021/10/03 03:24:09;;;;;;;1.05;0.70;;;;;;;-142.37;100.00;59669.53;4994613;28;20041;-72
2021/10/03 03:26:37;;;;;;;0.95;0.82;;;;;;;-142.37;100.00;59669.53;4978666;28;20022;-71
2021/10/03 03:29:04;;;;;;;2.63;1.02;;;;;;;-142.37;100.00;59669.53;4998053;28;20081;-73
2021/10/03 03:31:36;;;;;;;1.02;0.77;;;;;;;-142.37;100.00;59669.53;4981276;28;20026;-73
2021/10/03 03:34:07;;;;;;;1.27;0.70;;;;;;;-142.37;100.00;59669.53;4980081;28;20023;-71
2021/10/03 03:36:33;;;;;;;1.15;0.70;;;;;;;-142.37;100.00;59669.53;4997421;28;20023;-73
2021/10/03 03:39:02;;;;;;;1.00;0.90;;;;;;;-142.37;100.00;59669.53;4997674;28;20143;-71
2021/10/03 03:41:34;;;;;;;0.80;0.60;;;;;;;-142.37;100.00;59669.53;4997545;28;20492;-72
2021/10/03 03:43:59;;;;;;;2.13;1.02;;;;;;;-142.37;100.00;59669.53;4997400;28;20044;-72
2021/10/03 03:46:26;;;;;;;2.95;0.93;;;;;;;-142.37;100.00;59669.53;4997265;28;20105;-72
2021/10/03 03:48:53;;;;;;;1.60;0.70;;;;;;;-142.37;100.00;59669.53;4979860;28;20531;-71
2021/10/03 03:51:24;;;;;;;1.45;0.60;;;;;;;-142.37;100.00;59669.53;4997126;28;20373;-73
2021/10/03 03:53:51;;;;;;;0.75;0.52;;;;;;;-142.37;100.00;59669.53;4997272;28;20030;-72
2021/10/03 03:56:18;;;;;;;0.70;0.63;;;;;;;-142.37;100.00;59669.53;4997248;28;20572;-70
2021/10/03 03:58:45;;;;;;;0.75;0.68;;;;;;;-142.37;100.00;59669.53;4999133;28;20045;-74
2021/10/03 04:01:46;;;;;;;0.85;0.70;;;;;;;-142.37;100.00;59669.53;4998363;28;20068;-70
2021/10/03 04:04:21;;;;;;;0.68;0.68;;;;;;;-142.37;100.00;59669.53;4918083;29;20036;-73
2021/10/03 04:06:47;;;;;;;0.85;0.70;;;;;;;-142.37;100.00;59669.53;4918310;29;20394;-70
2021/10/03 04:09:15;;;;;;;0.98;0.70;;;;;;;-142.37;100.00;59669.53;4918009;29;20540;-73
2021/10/03 04:11:41;;;;;;;1.42;0.60;;;;;;;-142.37;100.00;59669.53;4917967;29;20496;-72
2021/10/03 04:14:09;;;;;;;1.25;0.70;;;;;;;-142.37;100.00;59669.53;4917673;29;20028;-73
2021/10/03 04:16:35;;;;;;;1.15;0.60;;;;;;;-142.37;100.00;59669.53;4917884;29;20519;-71
2021/10/03 04:19:01;;;;;;;0.60;0.60;;;;;;;-142.37;100.00;59669.53;4917713;29;20044;-73
2021/10/03 04:21:37;;;;;;;1.27;0.85;;;;;;;-142.37;100.00;59669.53;4917705;29;20042;-72
2021/10/03 04:24:04;;;;;;;0.68;0.68;;;;;;;-142.37;100.00;59669.53;4917742;29;20088;-71
2021/10/03 04:26:31;;;;;;;0.80;0.63;;;;;;;-142.37;100.00;59669.53;4917843;29;20404;-73
2021/10/03 04:28:57;;;;;;;1.33;0.75;;;;;;;-142.37;100.00;59669.53;4918006;29;20119;-70
2021/10/03 04:31:25;;;;;;;1.67;0.75;;;;;;;-142.37;100.00;59669.53;4917650;29;20036;-73
2021/10/03 04:33:51;;;;;;;2.72;0.85;;;;;;;-142.37;100.00;59669.53;4917571;29;20036;-72
2021/10/03 04:36:18;;;;;;;1.42;0.90;;;;;;;-142.37;100.00;59669.53;4917033;29;20488;-72
2021/10/03 04:38:46;;;;;;;1.00;0.75;;;;;;;-142.37;100.00;59669.53;4961811;28;20557;-71
2021/10/03 04:41:21;;;;;;;1.20;1.08;;;;;;;-142.37;100.00;59669.53;4976756;28;20031;-71
2021/10/03 04:43:56;;;;;;;0.98;0.60;;;;;;;-142.37;100.00;59669.53;4976706;28;20386;-72
2021/10/03 04:46:23;;;;;;;1.38;0.93;;;;;;;-142.37;100.00;59669.53;4976778;28;20470;-71
2021/10/03 04:48:49;;;;;;;0.80;0.80;;;;;;;-142.37;100.00;59669.53;4976684;28;20524;-72
2021/10/03 04:51:15;;;;;;;0.88;0.80;;;;;;;-142.37;100.00;59669.53;4976827;28;20027;-70
2021/10/03 04:53:48;;;;;;;1.10;0.90;;;;;;;-142.37;100.00;59669.53;4976567;28;20373;-73
2021/10/03 04:56:19;;;;;;;0.77;0.75;;;;;;;-142.37;100.00;59669.53;4977331;28;20030;-71
2021/10/03 04:58:55;;;;;;;0.90;0.77;;;;;;;-142.37;100.00;59669.53;4976669;28;20117;-71
2021/10/03 05:01:21;;;;;;;0.60;0.60;;;;;;;-142.37;100.00;59669.53;4976336;28;20023;-71
2021/10/03 05:04:04;;;;;;;1.35;0.70;;;;;;;-142.37;100.00;59669.53;4976433;28;20389;-71
2021/10/03 05:06:30;;;;;;;1.35;0.80;;;;;;;-142.37;100.00;59669.53;4976542;28;20019;-72
2021/10/03 05:09:05;;;;;;;0.90;0.50;;;;;;;-142.37;100.00;59669.53;4976518;28;20030;-71
2021/10/03 05:11:35;;;;;;;0.60;0.60;;;;;;;-142.37;100.00;59669.53;4976457;28;20027;-71
2021/10/03 05:14:06;;;;;;;0.85;0.60;;;;;;;-142.37;100.00;59669.53;4976153;28;20037;-71
2021/10/03 05:16:32;;;;;;;1.38;0.65;;;;;;;-142.37;100.00;59669.53;4995293;28;20042;-72
2021/10/03 05:18:58;;;;;;;1.35;1.00;;;;;;;-142.37;100.00;59669.53;4995547;28;20037;-70
2021/10/03 05:21:24;;;;;;;0.50;0.50;;;;;;;-142.37;100.00;59669.53;4996378;28;20033;-73
2021/10/03 05:23:51;;;;;;;0.50;0.50;;;;;;;-142.37;100.00;59669.53;4997543;28;20052;-71
2021/10/03 05:26:17;;;;;;;1.05;0.80;;;;;;;-142.37;100.00;59669.53;4995478;28;20373;-72
2021/10/03 05:28:44;;;;;;;0.40;0.40;;;;;;;-142.37;100.00;59669.53;4995524;28;20361;-71
2021/10/03 05:31:12;;;;;;;1.08;0.47;;;;;;;-142.37;100.00;59669.53;4995373;28;20382;-70
2021/10/03 05:33:39;;;;;;;0.50;0.47;;;;;;;-142.37;100.00;59669.53;4995192;28;20105;-71
2021/10/03 05:36:05;;;;;;;0.60;0.60;;;;;;;-142.37;100.00;59669.53;4995200;28;20027;-70
2021/10/03 05:38:44;;;;;;;0.65;0.50;;;;;;;-142.37;100.00;59669.53;4995190;28;20029;-72
2021/10/03 05:41:10;;;;;;;0.75;0.60;;;;;;;-142.37;100.00;59669.53;4995134;28;20560;-69
2021/10/03 05:43:44;;;;;;;0.70;0.60;;;;;;;-142.37;100.00;59669.53;4994973;28;20370;-71
2021/10/03 05:46:12;;;;;;;0.93;0.60;;;;;;;-142.37;100.00;59669.53;4995188;28;20026;-71
2021/10/03 05:48:38;;;;;;;0.75;0.45;;;;;;;-142.37;100.00;59669.53;4994276;28;20025;-71
2021/10/03 05:51:11;;;;;;;1.60;0.35;;;;;;;-142.37;100.00;59669.53;4995941;28;20088;-72
2021/10/03 05:53:39;;;;;;;2.50;0.47;;;;;;;-142.37;100.00;59669.53;4994987;28;20378;-71
2021/10/03 05:56:05;;;;;;;1.05;0.43;;;;;;;-142.37;100.00;59669.53;4994863;28;20033;-71
2021/10/03 05:58:33;;;;;;;0.50;0.50;;;;;;;-142.37;100.00;59669.53;4994771;28;20022;-70
2021/10/03 06:01:36;;;;;;;1.02;0.80;;;;;;;-142.37;100.00;59669.53;4994903;28;20370;-73
2021/10/03 06:04:01;;;;;;;0.43;0.32;;;;;;;-142.37;100.00;59669.53;4900228;29;20036;-71
2021/10/03 06:06:28;;;;;;;0.57;0.43;;;;;;;-142.37;100.00;59669.53;4916334;29;20064;-72
2021/10/03 06:09:03;;;;;;;0.43;0.30;;;;;;;-142.37;100.00;59669.53;4916071;29;20032;-71
2021/10/03 06:11:28;;;;;;;0.63;0.52;;;;;;;-142.37;100.00;59669.53;4915698;29;20046;-70
2021/10/03 06:13:53;;;;;;;1.27;0.43;;;;;;;-142.37;100.00;59669.53;4916044;29;20119;-70
2021/10/03 06:16:19;;;;;;;1.13;0.32;;;;;;;-142.37;100.00;59669.53;4915542;29;20048;-73
2021/10/03 06:18:45;;;;;;;0.88;0.52;;;;;;;-142.37;100.00;59669.53;4916044;29;20052;-70
2021/10/03 06:21:15;;;;;;;0.85;0.45;;;;;;;-142.37;100.00;59669.53;4916068;29;20034;-72
2021/10/03 06:23:48;;;;;;;0.60;0.45;;;;;;;-142.37;100.00;59669.53;4915678;29;20032;-71
2021/10/03 06:26:16;;;;;;;1.33;0.50;;;;;;;-142.37;100.00;59669.53;4915648;29;20036;-70
2021/10/03 06:28:42;;;;;;;0.63;0.43;;;;;;;-142.37;100.00;59669.53;4915886;29;20110;-72
2021/10/03 06:31:08;;;;;;;0.68;0.30;;;;;;;-142.37;100.00;59669.53;4899779;29;20044;-70
2021/10/03 06:33:44;;;;;;;0.55;0.55;;;;;;;-142.37;100.00;59669.53;4915686;29;20024;-71
2021/10/03 06:36:12;;;;;;;0.43;0.30;;;;;;;-142.37;100.00;59669.53;4915566;29;20062;-70
2021/10/03 06:38:37;;;;;;;0.88;0.30;;;;;;;-142.37;100.00;59669.53;4960877;28;20070;-71
2021/10/03 06:41:04;;;;;;;0.77;0.40;;;;;;;-142.37;100.00;59669.53;4973650;28;20062;-69
2021/10/03 06:43:35;;;;;;;0.40;0.40;;;;;;;-142.37;100.00;59669.53;4974810;28;20023;-72
2021/10/03 06:46:03;;;;;;;1.95;0.40;;;;;;;-142.37;100.00;59669.53;4974933;28;20101;-70
2021/10/03 06:48:30;;;;;;;0.25;0.20;;;;;;;-142.37;100.00;59669.53;4975388;28;20050;-71
2021/10/03 06:50:58;;;;;;;0.80;0.30;;;;;;;-142.37;100.00;59669.53;4974978;28;20018;-70
2021/10/03 06:53:26;;;;;;;0.88;0.60;;;;;;;-142.37;100.00;59669.53;4974898;28;20023;-71
2021/10/03 06:55:53;;;;;;;0.63;0.40;;;;;;;-142.37;100.00;59669.53;4974966;28;20030;-70
2021/10/03 06:58:21;;;;;;;1.05;0.38;;;;;;;-142.37;100.00;59669.53;4974770;28;20030;-70
2021/10/03 07:00:49;;;;;;;0.43;0.30;;;;;;;-142.37;100.00;59669.53;4977505;28;20432;-70
2021/10/03 07:03:15;;;;;;;0.20;0.17;;;;;;;-142.37;100.00;59669.53;4978425;28;20026;-70
2021/10/03 07:05:40;;;;;;;0.30;0.13;;;;;;;-142.37;100.00;59669.53;4978694;28;20035;-70
2021/10/03 07:08:08;;;;;;;0.95;0.20;;;;;;;-142.37;100.00;59669.53;4977344;28;20035;-70
2021/10/03 07:10:36;;;;;;;0.40;0.20;;;;;;;-142.37;100.00;59669.53;4978751;28;20033;-71
2021/10/03 07:13:02;;;;;;;0.25;0.20;;;;;;;-142.37;100.00;59669.53;4978787;28;20481;-70
2021/10/03 07:15:27;;;;;;;0.50;0.20;;;;;;;-142.37;100.00;59669.53;4985171;28;20055;-71
2021/10/03 07:17:53;;;;;;;0.65;0.30;;;;;;;-142.37;100.00;59669.53;4996536;28;20041;-70
2021/10/03 07:20:23;;;;;;;0.40;0.20;;;;;;;-142.37;100.00;59669.53;4997778;28;20058;-70
2021/10/03 07:22:54;;;;;;;0.80;0.20;;;;;;;-142.37;100.00;59669.53;4980181;28;20038;-71
2021/10/03 07:25:20;;;;;;;0.50;0.40;;;;;;;-142.37;100.00;59669.53;4997709;28;20050;-69
2021/10/03 07:27:55;;;;;;;0.65;0.30;;;;;;;-142.37;100.00;59669.53;4997385;28;20065;-72
2021/10/03 07:30:20;;;;;;;0.63;0.20;;;;;;;-142.37;100.00;59669.53;4979922;28;20674;-69
2021/10/03 07:32:47;;;;;;;0.75;0.40;;;;;;;-142.37;100.00;59669.53;4997846;28;20029;-71
2021/10/03 07:35:14;;;;;;;0.50;0.32;;;;;;;-142.37;100.00;59669.53;4997480;28;20019;-72
2021/10/03 07:37:41;;;;;;;0.50;0.30;;;;;;;-142.37;100.00;59669.53;4997373;28;20062;-70
2021/10/03 07:40:09;;;;;;;0.57;0.20;;;;;;;-142.37;100.00;59669.53;4997428;28;20377;-71
2021/10/03 07:42:44;;;;;;;0.40;0.25;;;;;;;-142.37;100.00;59669.53;4997170;28;20030;-70
2021/10/03 07:45:09;;;;;;;0.73;0.25;;;;;;;-142.37;100.00;59669.53;4997148;28;20026;-70
2021/10/03 07:47:37;;;;;;;0.50;0.20;;;;;;;-142.37;100.00;59669.53;4979676;28;20018;-70
2021/10/03 07:50:03;;;;;;;0.85;0.30;;;;;;;-142.37;100.00;59669.53;4997529;28;20105;-71
2021/10/03 07:52:30;;;;;;;0.25;0.22;;;;;;;-142.37;100.00;59669.53;4997038;28;20023;-70
2021/10/03 07:55:28;;;;;;;0.25;0.15;;;;;;;-142.37;100.00;59669.53;4979627;28;20022;-71
2021/10/03 07:58:03;;;;;;;1.27;0.43;;;;;;;-142.37;100.00;59669.53;4918085;29;20039;-70
2021/10/03 08:00:32;;;;;;;0.22;0.22;;;;;;;-142.37;100.00;59669.53;4918253;29;20126;-70
2021/10/03 08:03:26;;;;;;;0.47;0.20;;;;;;;-142.37;100.00;59669.53;4917822;29;20050;-70
2021/10/03 08:05:52;;;;;;;0.93;0.40;;;;;;;-142.37;100.00;59669.53;4861616;29;20069;-70
2021/10/03 08:08:19;;;;;;;1.05;0.57;;;;;;;-142.37;100.00;59669.53;4861694;29;20045;-70
2021/10/03 08:10:45;;;;;;;0.20;0.20;;;;;;;-142.37;100.00;59669.53;4861346;29;20068;-70
2021/10/03 08:13:13;;;;;;;0.45;0.20;;;;;;;-142.37;100.00;59669.53;4860771;29;20485;-70
2021/10/03 08:15:41;;;;;;;0.55;0.40;;;;;;;-142.37;100.00;59669.53;4861233;29;20086;-69
2021/10/03 08:18:15;;;;;;;0.90;0.22;;;;;;;-142.37;100.00;59669.53;4861247;29;20060;-70
2021/10/03 08:20:42;;;;;;;0.95;0.22;;;;;;;-142.37;100.00;59669.53;4861392;29;20085;-69
2021/10/03 08:23:09;;;;;;;0.30;0.22;;;;;;;-142.37;100.00;59669.53;4861408;29;20053;-72
2021/10/03 08:25:34;;;;;;;0.80;0.20;;;;;;;-142.37;100.00;59669.53;4861224;29;20029;-69
2021/10/03 08:28:01;;;;;;;1.35;0.20;;;;;;;-142.37;100.00;59669.53;4861211;29;20041;-70
2021/10/03 08:30:27;;;;;;;0.35;0.35;;;;;;;-142.37;100.00;59669.53;4861058;29;20120;-70
2021/10/03 08:32:54;;;;;;;0.63;0.35;;;;;;;-142.37;100.00;59669.53;4861028;29;20057;-69
2021/10/03 08:35:20;;;;;;;0.17;0.17;;;;;;;-142.37;100.00;59669.53;4891301;29;20560;-71
2021/10/03 08:37:45;;;;;;;0.30;0.20;;;;;;;-142.37;100.00;59669.53;4898430;29;20084;-69
2021/10/03 08:40:12;;;;;;;0.88;0.38;;;;;;;-142.37;100.00;59669.53;4898423;29;20409;-70
2021/10/03 08:42:38;;;;;;;0.75;0.40;;;;;;;-142.37;100.00;59669.53;4950107;28;20133;-69
2021/10/03 08:45:05;;;;;;;0.40;0.28;;;;;;;-142.37;100.00;59669.53;4975402;28;20434;-71
2021/10/03 08:47:31;;;;;;;0.55;0.20;;;;;;;-142.37;100.00;59669.53;4975278;28;20454;-69
2021/10/03 08:49:57;;;;;;;0.77;0.40;;;;;;;-142.37;100.00;59669.53;4976585;28;20035;-69
2021/10/03 08:52:25;;;;;;;0.30;0.30;;;;;;;-142.37;100.00;59669.53;4976166;28;20022;-70
2021/10/03 08:54:52;;;;;;;0.32;0.25;;;;;;;-142.37;100.00;59669.53;4976641;28;20060;-69
2021/10/03 08:57:18;;;;;;;0.30;0.30;;;;;;;-142.37;100.00;59669.53;4976623;28;20033;-69
2021/10/03 09:00:05;;;;;;;0.20;0.20;;;;;;;-142.37;100.00;59669.53;4976294;28;20031;-69
2021/10/03 09:02:56;;;;;;;0.30;0.30;;;;;;;-142.37;100.00;59669.53;4976172;28;20078;-70
2021/10/03 09:05:34;;;;;;;0.20;0.20;;;;;;;-142.37;100.00;59669.53;4995817;28;20385;-70
2021/10/03 09:08:01;;;;;;;0.30;0.30;;;;;;;-142.37;100.00;59669.53;4978088;28;20137;-69
2021/10/03 09:10:52;;;;;;;0.50;0.50;;;;;;;-142.37;100.00;59669.53;4995413;28;20032;-69
2021/10/03 09:13:19;;;;;;;1.00;0.40;;;;;;;-142.37;100.00;59669.53;4935312;29;20083;-69
2021/10/03 09:15:46;;;;;;;0.50;0.17;;;;;;;-142.37;100.00;59669.53;4935091;29;20054;-70
2021/10/03 09:18:16;;;;;;;1.13;0.30;;;;;;;-142.37;100.00;59669.53;4935437;29;20059;-69
2021/10/03 09:20:42;;;;;;;2.28;0.30;;;;;;;-142.37;100.00;59669.53;4935235;29;20519;-71
2021/10/03 09:23:21;;;;;;;0.82;0.35;;;;;;;-142.37;100.00;59669.53;4935116;29;20070;-69
2021/10/03 09:25:53;;;;;;;1.75;0.40;;;;;;;-142.37;100.00;59669.53;4935255;29;20375;-71
2021/10/03 09:28:24;;;;;;;0.32;0.20;;;;;;;-142.37;100.00;59669.53;4919579;29;20570;-69
2021/10/03 09:31:07;;;;;;;0.28;0.28;;;;;;;-142.37;100.00;59669.53;4935283;29;20036;-70
2021/10/03 09:33:41;;;;;;;0.20;0.20;;;;;;;-142.37;100.00;59669.53;4935064;29;20042;-69
2021/10/03 09:36:08;;;;;;;;;;;;;;;-142.37;100.00;59669.53;4935325;29;20038;-70
2021/10/03 09:38:49;;;;;;;1.88;0.50;;;;;;;-142.37;100.00;59669.53;4934980;29;19911;-69
2021/10/03 09:41:17;;;;;;;0.30;0.22;;;;;;;-142.37;100.00;59669.53;4919037;29;20079;-70
2021/10/03 09:43:49;;;;;;;0.25;0.20;;;;;;;-142.37;100.00;59669.53;4935135;29;20036;-69
2021/10/03 09:46:37;;;;;;;0.35;0.30;;;;;;;-142.37;100.00;59669.53;4934728;29;20036;-70
2021/10/03 09:49:09;;;;;;;0.20;0.20;;;;;;;-142.37;100.00;59669.53;4934785;29;20051;-68
2021/10/03 09:51:36;;;;;;;0.35;0.25;;;;;;;-142.37;100.00;59669.53;4954891;29;20398;-71
2021/10/03 09:54:05;;;;;;;0.40;0.40;;;;;;;-142.37;100.00;59669.53;4954642;29;20069;-69
2021/10/03 09:56:32;;;;;;;0.50;0.38;;;;;;;-142.37;100.00;59669.53;4955043;29;20110;-70
2021/10/03 09:59:00;;;;;;;1.42;0.30;;;;;;;-142.37;100.00;59669.53;4955959;28;20391;-69
2021/10/03 10:01:32;;;;;;;0.73;0.22;;;;;;;-142.37;100.00;59669.53;4955881;28;20367;-70
2021/10/03 10:03:57;;;;;;;0.35;0.22;;;;;;;-142.37;100.00;59669.53;4955675;28;20177;-68
2021/10/03 10:06:28;;;;;;;0.30;0.22;;;;;;;-142.37;100.00;59669.53;4954645;29;20450;-70
2021/10/03 10:08:56;;;;;;;0.32;0.30;;;;;;;-142.37;100.00;59669.53;4970819;28;20110;-69
2021/10/03 10:11:49;;;;;;;0.30;0.20;;;;;;;-142.37;100.00;59669.53;4955766;28;20082;-70
2021/10/03 10:14:16;;;;;;;0.22;0.20;;;;;;;-142.37;100.00;59669.53;4954233;28;20022;-69
2021/10/03 10:16:42;;;;;;;0.55;0.25;;;;;;;-142.37;100.00;59669.53;4971716;28;20061;-70
2021/10/03 10:19:38;;;;;;;0.25;0.22;;;;;;;-142.37;100.00;59669.53;4973790;28;20030;-69
2021/10/03 10:22:22;;;;;;;0.95;0.30;;;;;;;-142.37;100.00;59669.53;4973627;28;20054;-69
2021/10/03 10:24:51;;;;;;;1.23;0.30;;;;;;;-142.37;100.00;59669.53;4975061;28;20031;-69
2021/10/03 10:27:28;;;;;;;0.98;0.35;;;;;;;-142.37;100.00;59669.53;4973646;28;20269;-70
2021/10/03 10:29:59;;;;;;;0.20;0.20;;;;;;;-142.37;100.00;59669.53;4974934;28;20029;-69
2021/10/03 10:32:53;;;;;;;0.60;0.40;;;;;;;-142.37;100.00;59669.53;4974781;28;20525;-70
2021/10/03 10:35:20;;;;;;;0.45;0.30;;;;;;;-142.37;100.00;59669.53;4976507;28;20035;-69
2021/10/03 10:37:59;;;;;;;0.40;0.20;;;;;;;-142.37;100.00;59669.53;4978807;28;20085;-71
2021/10/03 10:40:25;;;;;;;0.32;0.13;;;;;;;-142.37;100.00;59669.53;4978746;28;20074;-69
2021/10/03 10:43:04;;;;;;;0.73;0.35;;;;;;;-142.37;100.00;59669.53;4978734;28;20027;-70
2021/10/03 10:45:33;;;;;;;0.43;0.20;;;;;;;-142.37;100.00;59669.53;4978727;28;20027;-69
2021/10/03 10:48:17;;;;;;;1.38;0.40;;;;;;;-142.37;100.00;59669.53;4978854;28;20027;-70
2021/10/03 10:50:49;;;;;;;0.70;0.30;;;;;;;-142.37;100.00;59669.53;4978499;28;20073;-69
2021/10/03 10:53:26;;;;;;;0.25;0.25;;;;;;;-142.37;100.00;59669.53;4978528;28;20026;-70
2021/10/03 10:56:08;;;;;;;0.20;0.20;;;;;;;-142.37;100.00;59669.53;4978634;28;20023;-69
2021/10/03 10:58:37;;;;;;;2.40;0.45;;;;;;;-142.37;100.00;59669.53;4977350;28;20109;-71
2021/10/03 11:01:12;;;;;;;0.40;0.30;;;;;;;-142.37;100.00;59669.53;4978454;28;20031;-69
2021/10/03 11:03:43;;;;;;;0.50;0.30;;;;;;;-142.37;100.00;59669.53;4993496;28;20050;-71
2021/10/03 11:06:14;;;;;;;0.70;0.40;;;;;;;-142.37;100.00;59669.53;4978371;28;20050;-69
2021/10/03 11:08:59;;;;;;;0.35;0.35;;;;;;;-142.37;100.00;59669.53;4977017;28;20496;-70
2021/10/03 11:11:32;;;;;;;0.77;0.32;;;;;;;-142.37;100.00;59669.53;4978413;28;20027;-70
2021/10/03 11:14:18;;;;;;;0.40;0.20;;;;;;;-142.37;100.00;59669.53;4978254;28;20030;-70
2021/10/03 11:16:48;;;;;;;0.50;0.17;;;;;;;-142.37;100.00;59669.53;4978011;28;20046;-70
2021/10/03 11:19:21;;;;;;;0.30;0.30;;;;;;;-142.37;100.00;59669.53;4978218;28;20026;-70